Time;durP1;ratioP1;P1;durP2;ratioP2;P2;SDS_P1;SDS_P2;PMS_P1;PMS_P2;Temp;Humidity;BMP_temperature;BMP_pressure;BME280_temperature;BME280_humidity;BME280_pressure;Samples;Min_cycle;Max_cycle;Signal;HPM_P1;HPM_P2
2022/12/11 00:42:32;;;;;;;59.73;36.10;;;;;;;;;;4727424;30;20211;-88
2022/12/11 00:45:00;;;;;;;59.73;36.07;;;;;;;;;;4771817;29;20296;-88
2022/12/11 00:47:29;;;;;;;64.17;42.97;;;;;;;;;;4875549;29;20212;-88
2022/12/11 00:49:57;;;;;;;59.03;35.80;;;;;;;;;;4904286;29;20290;-89
2022/12/11 00:52:26;;;;;;;58.57;43.63;;;;;;;;;;4923872;29;20257;-88
2022/12/11 00:54:54;;;;;;;35.33;21.30;;;;;;;;;;4939715;29;20324;-88
2022/12/11 00:57:22;;;;;;;47.73;31.87;;;;;;;;;;4959087;28;20214;-89
2022/12/11 00:59:52;;;;;;;48.53;29.93;;;;;;;;;;4981569;28;20211;-89
2022/12/11 01:02:20;;;;;;;46.20;29.70;;;;;;;;;;4981182;28;20214;-88
2022/12/11 01:04:49;;;;;;;53.70;34.40;;;;;;;;;;4992336;28;20231;-88
2022/12/11 01:07:17;;;;;;;63.97;44.10;;;;;;;;;;4997605;28;20320;-88
2022/12/11 01:12:31;;;;;;;57.77;33.47;;;;;;;;;;4986942;28;20217;-88
2022/12/11 01:15:01;;;;;;;46.77;31.93;;;;;;;;;;5021184;28;20200;-89
2022/12/11 01:17:29;;;;;;;51.40;33.23;;;;;;;;;;5038640;28;20235;-88
2022/12/11 01:19:58;;;;;;;56.80;37.60;;;;;;;;;;5008566;28;20259;-88
2022/12/11 01:22:26;;;;;;;49.37;28.90;;;;;;;;;;4999366;28;20194;-88
2022/12/11 01:24:54;;;;;;;51.70;35.73;;;;;;;;;;5011837;28;20204;-88
2022/12/11 01:27:23;;;;;;;41.17;26.07;;;;;;;;;;5035917;28;20271;-88
2022/12/11 01:29:51;;;;;;;50.37;34.30;;;;;;;;;;5017828;28;20270;-89
2022/12/11 01:32:21;;;;;;;44.97;24.40;;;;;;;;;;5019076;28;20239;-88
2022/12/11 01:34:49;;;;;;;49.70;31.47;;;;;;;;;;5018188;28;20225;-88
2022/12/11 01:37:18;;;;;;;29.87;18.33;;;;;;;;;;5027094;28;20200;-88
2022/12/11 01:39:46;;;;;;;32.50;21.93;;;;;;;;;;5042878;28;20274;-89
2022/12/11 01:42:17;;;;;;;48.73;21.37;;;;;;;;;;5021897;28;20202;-88
2022/12/11 01:45:18;;;;;;;41.50;24.53;;;;;;;;;;5022498;28;20283;-88
2022/12/11 01:47:48;;;;;;;44.27;26.70;;;;;;;;;;4960591;28;20289;-88
2022/12/11 01:50:17;;;;;;;11.10;6.67;;;;;;;;;;4958555;28;20243;-88
2022/12/11 01:52:47;;;;;;;23.37;17.77;;;;;;;;;;4973700;28;20254;-88
2022/12/11 01:55:16;;;;;;;8.13;5.63;;;;;;;;;;5018647;28;20222;-89
2022/12/11 01:57:46;;;;;;;5.27;4.17;;;;;;;;;;5035212;28;20196;-89
2022/12/11 02:00:15;;;;;;;8.83;5.90;;;;;;;;;;5017981;28;20274;-88
2022/12/11 02:02:43;;;;;;;9.10;6.40;;;;;;;;;;5017328;28;20200;-88
2022/12/11 02:05:13;;;;;;;22.27;14.60;;;;;;;;;;5017671;28;20231;-88
2022/12/11 02:07:44;;;;;;;14.77;10.10;;;;;;;;;;5021449;28;20233;-88
2022/12/11 02:10:12;;;;;;;29.30;18.57;;;;;;;;;;5025304;28;20202;-88
2022/12/11 02:12:43;;;;;;;8.73;6.73;;;;;;;;;;5025332;28;20206;-89
2022/12/11 02:15:13;;;;;;;31.30;24.53;;;;;;;;;;5034442;28;20288;-88
2022/12/11 02:17:43;;;;;;;16.47;10.80;;;;;;;;;;5034864;28;20206;-88
2022/12/11 02:20:16;;;;;;;39.73;25.93;;;;;;;;;;5017441;28;20208;-88
2022/12/11 02:22:54;;;;;;;34.43;26.17;;;;;;;;;;5016406;28;20201;-88
2022/12/11 02:25:26;;;;;;;13.70;10.17;;;;;;;;;;5017566;28;20197;-88
2022/12/11 02:27:57;;;;;;;33.57;19.57;;;;;;;;;;5016645;28;20199;-88
2022/12/11 02:30:27;;;;;;;15.77;12.93;;;;;;;;;;5017378;28;20231;-88
2022/12/11 02:32:56;;;;;;;37.47;27.10;;;;;;;;;;5033095;28;20273;-89
2022/12/11 02:35:27;;;;;;;37.10;25.00;;;;;;;;;;5017100;28;20209;-88
2022/12/11 02:37:57;;;;;;;37.33;27.70;;;;;;;;;;5010886;28;20195;-88
2022/12/11 02:40:28;;;;;;;28.60;20.90;;;;;;;;;;4999285;28;20213;-87
2022/12/11 02:42:58;;;;;;;39.03;28.40;;;;;;;;;;5004845;28;20221;-88
2022/12/11 02:45:29;;;;;;;36.03;23.40;;;;;;;;;;5002656;28;20230;-88
2022/12/11 02:47:59;;;;;;;42.13;26.83;;;;;;;;;;5016424;28;20226;-88
2022/12/11 02:50:28;;;;;;;45.27;27.90;;;;;;;;;;5001704;28;20202;-88
2022/12/11 02:52:57;;;;;;;49.80;32.13;;;;;;;;;;5014389;28;20295;-88
2022/12/11 02:55:27;;;;;;;55.97;34.03;;;;;;;;;;4997701;28;20214;-89
2022/12/11 02:57:58;;;;;;;52.87;31.83;;;;;;;;;;5014627;28;20194;-88
2022/12/11 03:00:29;;;;;;;38.27;24.30;;;;;;;;;;5010206;28;20240;-88
2022/12/11 03:02:57;;;;;;;57.57;34.90;;;;;;;;;;5014611;28;20209;-88
2022/12/11 03:05:26;;;;;;;59.17;32.67;;;;;;;;;;4997167;28;20307;-88
2022/12/11 03:07:55;;;;;;;47.97;29.87;;;;;;;;;;4996959;28;20237;-88
2022/12/11 03:10:24;;;;;;;51.47;33.17;;;;;;;;;;4996643;28;20232;-88
2022/12/11 03:12:53;;;;;;;49.20;28.10;;;;;;;;;;4996754;28;20210;-88
2022/12/11 03:15:23;;;;;;;57.43;34.87;;;;;;;;;;5021635;28;20248;-89
2022/12/11 03:18:00;;;;;;;30.17;20.00;;;;;;;;;;5015745;28;20206;-88
2022/12/11 03:20:33;;;;;;;46.67;26.23;;;;;;;;;;5024377;28;20219;-89
2022/12/11 03:23:05;;;;;;;52.13;26.83;;;;;;;;;;4997364;28;20289;-89
2022/12/11 03:25:35;;;;;;;15.70;8.80;;;;;;;;;;4997092;28;20201;-88
2022/12/11 03:28:07;;;;;;;52.67;29.20;;;;;;;;;;5009695;28;20207;-88
2022/12/11 03:30:36;;;;;;;55.30;31.60;;;;;;;;;;5014068;28;20225;-88
2022/12/11 03:33:08;;;;;;;47.90;31.40;;;;;;;;;;5030358;28;20251;-88
2022/12/11 03:35:39;;;;;;;55.17;34.07;;;;;;;;;;5022198;28;20288;-88
2022/12/11 03:38:09;;;;;;;22.63;13.80;;;;;;;;;;5034004;28;20196;-88
2022/12/11 03:40:39;;;;;;;47.53;28.50;;;;;;;;;;5018556;28;20268;-88
2022/12/11 03:43:07;;;;;;;63.17;38.83;;;;;;;;;;5027038;28;20207;-89
2022/12/11 03:45:38;;;;;;;50.07;30.50;;;;;;;;;;5033599;28;20204;-88
2022/12/11 03:48:10;;;;;;;34.17;23.67;;;;;;;;;;5026111;28;20205;-88
2022/12/11 03:50:40;;;;;;;55.73;32.43;;;;;;;;;;5042398;28;20249;-88
2022/12/11 03:53:08;;;;;;;51.60;35.70;;;;;;;;;;5035776;28;20254;-88
2022/12/11 03:55:38;;;;;;;41.50;24.93;;;;;;;;;;5017217;28;20264;-88
2022/12/11 03:58:06;;;;;;;17.53;10.43;;;;;;;;;;5027625;28;20200;-88
2022/12/11 04:00:35;;;;;;;32.87;19.33;;;;;;;;;;5034751;28;20196;-88
2022/12/11 04:03:12;;;;;;;21.63;15.10;;;;;;;;;;5034828;28;20204;-89
2022/12/11 04:05:44;;;;;;;5.43;4.97;;;;;;;;;;5016095;28;20198;-88
2022/12/11 04:08:13;;;;;;;16.10;9.23;;;;;;;;;;5035301;28;20243;-88
2022/12/11 04:10:42;;;;;;;5.90;5.13;;;;;;;;;;5053150;28;20226;-89
2022/12/11 04:13:11;;;;;;;19.00;11.30;;;;;;;;;;5032102;28;20265;-88
2022/12/11 04:15:38;;;;;;;11.73;8.47;;;;;;;;;;5015935;28;20232;-88
2022/12/11 04:26:27;;;;;;;48.73;33.73;;;;;;;;;;5021700;28;20291;-88
2022/12/11 04:28:56;;;;;;;43.73;26.17;;;;;;;;;;5034915;28;20235;-88
2022/12/11 04:31:24;;;;;;;37.83;26.77;;;;;;;;;;5046104;28;20198;-88
2022/12/11 04:33:53;;;;;;;43.73;22.50;;;;;;;;;;5045892;28;20198;-88
2022/12/11 04:36:22;;;;;;;41.53;29.77;;;;;;;;;;5052509;28;20198;-88
2022/12/11 04:38:51;;;;;;;46.77;34.77;;;;;;;;;;5051271;28;20199;-88
2022/12/11 04:41:19;;;;;;;45.43;31.17;;;;;;;;;;5032651;28;20217;-89
2022/12/11 04:43:47;;;;;;;43.80;30.60;;;;;;;;;;5047158;28;20229;-89
2022/12/11 04:46:18;;;;;;;44.27;26.17;;;;;;;;;;5034853;28;20195;-88
2022/12/11 04:48:46;;;;;;;47.77;25.80;;;;;;;;;;5034626;28;20258;-89
2022/12/11 04:51:24;;;;;;;43.23;28.53;;;;;;;;;;5025254;28;20209;-89
2022/12/11 04:53:52;;;;;;;41.60;26.87;;;;;;;;;;5035090;28;20226;-89
2022/12/11 04:56:21;;;;;;;35.43;23.50;;;;;;;;;;5034838;28;20206;-88
2022/12/11 04:58:49;;;;;;;20.93;12.73;;;;;;;;;;5032795;28;20198;-89
2022/12/11 05:01:20;;;;;;;31.53;20.00;;;;;;;;;;5029811;28;20227;-89
2022/12/11 05:03:48;;;;;;;42.27;25.77;;;;;;;;;;5033452;28;20225;-89
2022/12/11 05:06:16;;;;;;;31.70;18.90;;;;;;;;;;5048255;28;20211;-89
2022/12/11 05:08:46;;;;;;;40.97;25.90;;;;;;;;;;5034393;28;20211;-88
2022/12/11 05:11:16;;;;;;;29.97;18.97;;;;;;;;;;5026132;28;20192;-88
2022/12/11 05:13:45;;;;;;;40.93;26.37;;;;;;;;;;5025877;28;20322;-88
2022/12/11 05:16:14;;;;;;;50.80;34.30;;;;;;;;;;5038425;28;20227;-88
2022/12/11 05:18:42;;;;;;;42.90;25.30;;;;;;;;;;5037495;28;20226;-89
2022/12/11 05:21:13;;;;;;;54.80;34.73;;;;;;;;;;5055039;28;20259;-88
2022/12/11 05:23:42;;;;;;;50.97;32.63;;;;;;;;;;5038459;28;20212;-88
2022/12/11 05:26:13;;;;;;;57.20;33.37;;;;;;;;;;5055090;28;20258;-88
2022/12/11 05:28:42;;;;;;;50.63;33.70;;;;;;;;;;5027943;28;20243;-88
2022/12/11 05:31:13;;;;;;;33.17;18.47;;;;;;;;;;5022544;28;20245;-88
2022/12/11 05:33:41;;;;;;;44.37;30.63;;;;;;;;;;5010501;28;20204;-88
2022/12/11 05:36:10;;;;;;;51.77;31.97;;;;;;;;;;5012229;28;20220;-88
2022/12/11 05:38:39;;;;;;;44.53;26.40;;;;;;;;;;5010641;28;20192;-88
2022/12/11 05:41:07;;;;;;;49.30;33.67;;;;;;;;;;5000463;28;20204;-88
2022/12/11 05:43:37;;;;;;;52.20;36.97;;;;;;;;;;5028844;28;20207;-88
2022/12/11 05:46:06;;;;;;;43.20;28.00;;;;;;;;;;5027986;28;20230;-88
2022/12/11 05:48:35;;;;;;;51.30;35.43;;;;;;;;;;5024441;28;20220;-88
2022/12/11 05:51:04;;;;;;;53.60;33.10;;;;;;;;;;5005608;28;20187;-88
2022/12/11 05:53:33;;;;;;;53.90;31.63;;;;;;;;;;5017479;28;20191;-88
2022/12/11 05:56:02;;;;;;;46.30;27.13;;;;;;;;;;5017084;28;20203;-89
2022/12/11 05:58:31;;;;;;;59.03;41.20;;;;;;;;;;5004802;28;20209;-88
2022/12/11 06:01:01;;;;;;;50.27;33.90;;;;;;;;;;5026762;28;20201;-88
2022/12/11 06:03:29;;;;;;;65.27;39.83;;;;;;;;;;5031057;28;20223;-89
2022/12/11 06:05:58;;;;;;;41.70;25.97;;;;;;;;;;5035338;28;20226;-89
2022/12/11 06:08:26;;;;;;;57.37;32.20;;;;;;;;;;5017003;28;20279;-88
2022/12/11 06:10:54;;;;;;;60.03;35.63;;;;;;;;;;5007830;28;20203;-88
2022/12/11 06:13:23;;;;;;;56.23;32.00;;;;;;;;;;5011257;28;20286;-89
2022/12/11 06:15:51;;;;;;;44.63;27.03;;;;;;;;;;5005558;28;20207;-88
2022/12/11 06:18:21;;;;;;;53.77;32.67;;;;;;;;;;5015610;28;20188;-88
2022/12/11 06:20:49;;;;;;;47.97;30.30;;;;;;;;;;5005551;28;20232;-88
2022/12/11 06:23:18;;;;;;;49.67;31.30;;;;;;;;;;5033051;28;20220;-89
2022/12/11 06:25:46;;;;;;;25.90;11.50;;;;;;;;;;5017299;28;20224;-89
2022/12/11 06:28:14;;;;;;;42.90;28.77;;;;;;;;;;5016552;28;20267;-89
2022/12/11 06:30:43;;;;;;;32.43;19.10;;;;;;;;;;5004852;28;20275;-88
2022/12/11 06:33:12;;;;;;;41.63;29.13;;;;;;;;;;5011089;28;20298;-88
2022/12/11 06:35:41;;;;;;;39.87;28.53;;;;;;;;;;5030007;28;20263;-88
2022/12/11 06:38:10;;;;;;;38.43;30.63;;;;;;;;;;5029222;28;20292;-88
2022/12/11 06:40:39;;;;;;;33.40;25.03;;;;;;;;;;5051805;28;20253;-88
2022/12/11 06:43:07;;;;;;;31.53;22.90;;;;;;;;;;5017051;28;20207;-89
2022/12/11 06:45:37;;;;;;;30.77;21.30;;;;;;;;;;5029115;28;20308;-88
2022/12/11 06:48:06;;;;;;;23.83;16.60;;;;;;;;;;5037223;28;20214;-89
2022/12/11 06:50:34;;;;;;;28.23;17.97;;;;;;;;;;5034293;28;20204;-89
2022/12/11 06:53:04;;;;;;;27.83;21.53;;;;;;;;;;5034224;28;20235;-89
2022/12/11 06:55:35;;;;;;;30.47;24.90;;;;;;;;;;5033646;28;20211;-88
2022/12/11 06:58:03;;;;;;;28.27;18.87;;;;;;;;;;5036302;28;20294;-89
2022/12/11 07:00:32;;;;;;;25.93;18.10;;;;;;;;;;5035797;28;20234;-88
2022/12/11 07:03:00;;;;;;;24.70;19.17;;;;;;;;;;5036121;28;20222;-88
2022/12/11 07:05:28;;;;;;;28.77;20.70;;;;;;;;;;5035711;28;20228;-89
2022/12/11 07:07:57;;;;;;;23.50;17.63;;;;;;;;;;5033035;28;20199;-88
2022/12/11 07:10:26;;;;;;;27.23;21.57;;;;;;;;;;5040594;28;20258;-88
2022/12/11 07:12:55;;;;;;;26.73;19.57;;;;;;;;;;5035237;28;20260;-88
2022/12/11 07:15:23;;;;;;;32.80;20.20;;;;;;;;;;5024062;28;20247;-88
2022/12/11 07:17:51;;;;;;;31.17;22.57;;;;;;;;;;5021305;28;20203;-88
2022/12/11 07:20:20;;;;;;;27.70;19.67;;;;;;;;;;5040967;28;20198;-88
2022/12/11 07:22:48;;;;;;;25.87;21.20;;;;;;;;;;5035469;28;20282;-88
2022/12/11 07:25:17;;;;;;;22.43;16.97;;;;;;;;;;5027073;28;20223;-88
2022/12/11 07:27:46;;;;;;;24.67;16.67;;;;;;;;;;5030970;28;20277;-88
2022/12/11 07:30:15;;;;;;;34.90;23.83;;;;;;;;;;5026161;28;20210;-89
2022/12/11 07:32:43;;;;;;;29.97;22.77;;;;;;;;;;5032722;28;20266;-88
2022/12/11 07:35:11;;;;;;;27.63;21.80;;;;;;;;;;5052404;28;20210;-89
2022/12/11 07:37:41;;;;;;;33.60;25.80;;;;;;;;;;5051559;28;20195;-88
2022/12/11 07:40:10;;;;;;;34.73;25.60;;;;;;;;;;5035548;28;20204;-88
2022/12/11 07:42:38;;;;;;;29.60;23.50;;;;;;;;;;5048640;28;20195;-89
2022/12/11 07:45:14;;;;;;;28.97;21.50;;;;;;;;;;5028074;28;20206;-88
2022/12/11 07:47:43;;;;;;;31.50;22.10;;;;;;;;;;5064523;28;20208;-88
2022/12/11 07:50:11;;;;;;;27.87;19.83;;;;;;;;;;5035623;28;20313;-89
2022/12/11 07:52:39;;;;;;;30.90;23.60;;;;;;;;;;5022627;28;20249;-88
2022/12/11 07:55:08;;;;;;;30.67;24.30;;;;;;;;;;5022080;28;20198;-88
2022/12/11 07:57:37;;;;;;;32.63;26.27;;;;;;;;;;5027885;28;20295;-89
2022/12/11 08:00:06;;;;;;;36.03;26.17;;;;;;;;;;5016838;28;20207;-88
2022/12/11 08:02:36;;;;;;;32.30;24.17;;;;;;;;;;5027366;28;20229;-88
2022/12/11 08:05:05;;;;;;;28.00;20.17;;;;;;;;;;5048225;28;20233;-88
2022/12/11 08:07:35;;;;;;;31.30;22.13;;;;;;;;;;5017940;28;20231;-89
2022/12/11 08:10:03;;;;;;;29.87;22.53;;;;;;;;;;5031541;28;20228;-88
2022/12/11 08:12:32;;;;;;;25.10;19.80;;;;;;;;;;5034632;28;20195;-89
2022/12/11 08:15:00;;;;;;;26.23;21.63;;;;;;;;;;5034801;28;20199;-89
2022/12/11 08:17:28;;;;;;;26.63;19.20;;;;;;;;;;5025211;28;20187;-88
2022/12/11 08:20:05;;;;;;;24.10;19.80;;;;;;;;;;5020799;28;20237;-89
2022/12/11 08:22:34;;;;;;;21.97;18.43;;;;;;;;;;5034282;28;20297;-89
2022/12/11 08:25:03;;;;;;;24.97;18.23;;;;;;;;;;5021664;28;20269;-88
2022/12/11 08:27:31;;;;;;;26.57;19.27;;;;;;;;;;5034375;28;20201;-88
2022/12/11 08:30:00;;;;;;;24.00;18.83;;;;;;;;;;5015436;28;20309;-88
2022/12/11 08:32:28;;;;;;;24.63;17.07;;;;;;;;;;5030480;28;20252;-88
2022/12/11 08:34:56;;;;;;;22.27;14.93;;;;;;;;;;5037482;28;20205;-88
2022/12/11 08:37:26;;;;;;;24.40;17.93;;;;;;;;;;5021085;28;20207;-88
2022/12/11 08:39:55;;;;;;;26.23;19.13;;;;;;;;;;5047863;28;20235;-88
2022/12/11 08:42:23;;;;;;;12.67;9.70;;;;;;;;;;5052364;28;20211;-88
2022/12/11 08:44:51;;;;;;;19.37;14.07;;;;;;;;;;5039114;28;20229;-88
2022/12/11 08:47:20;;;;;;;21.37;14.77;;;;;;;;;;5035549;28;20273;-88
2022/12/11 08:49:48;;;;;;;20.67;14.63;;;;;;;;;;5028637;28;20213;-88
2022/12/11 08:52:16;;;;;;;20.70;14.63;;;;;;;;;;5022845;28;20203;-88
2022/12/11 08:54:47;;;;;;;15.63;12.13;;;;;;;;;;5047341;28;20206;-89
2022/12/11 08:57:16;;;;;;;14.87;8.17;;;;;;;;;;5043025;28;20205;-88
2022/12/11 08:59:44;;;;;;;29.83;24.43;;;;;;;;;;5027009;28;20211;-89
2022/12/11 09:02:12;;;;;;;26.37;18.97;;;;;;;;;;5037238;28;20189;-89
2022/12/11 09:04:41;;;;;;;25.47;17.73;;;;;;;;;;5055999;28;20230;-88
2022/12/11 09:07:09;;;;;;;22.30;15.50;;;;;;;;;;5025097;28;20203;-89
2022/12/11 09:09:38;;;;;;;25.77;19.10;;;;;;;;;;5038254;28;20261;-88
2022/12/11 09:12:08;;;;;;;19.40;14.63;;;;;;;;;;5025854;28;20287;-89
2022/12/11 09:14:36;;;;;;;17.60;12.13;;;;;;;;;;5046802;28;20204;-88
2022/12/11 09:17:05;;;;;;;26.27;18.27;;;;;;;;;;5043642;28;20233;-88
2022/12/11 09:19:33;;;;;;;29.83;21.07;;;;;;;;;;5023534;28;20192;-88
2022/12/11 09:22:02;;;;;;;26.37;19.93;;;;;;;;;;5026832;28;20231;-88
2022/12/11 09:24:30;;;;;;;18.43;13.03;;;;;;;;;;5022672;28;20208;-88
2022/12/11 09:26:58;;;;;;;21.73;16.47;;;;;;;;;;5027821;28;20203;-88
2022/12/11 09:29:28;;;;;;;24.77;14.70;;;;;;;;;;5035176;28;20226;-88
2022/12/11 09:31:57;;;;;;;27.63;18.90;;;;;;;;;;5028382;28;20232;-88
2022/12/11 09:34:26;;;;;;;16.60;12.90;;;;;;;;;;5038309;28;20203;-88
2022/12/11 09:36:57;;;;;;;22.37;16.50;;;;;;;;;;5037928;28;20231;-89
2022/12/11 09:39:25;;;;;;;27.67;19.20;;;;;;;;;;5037874;28;20211;-88
2022/12/11 09:41:56;;;;;;;29.47;23.47;;;;;;;;;;5031998;28;20291;-89
2022/12/11 09:44:32;;;;;;;27.50;18.67;;;;;;;;;;5036332;28;20208;-88
2022/12/11 09:47:01;;;;;;;28.40;20.97;;;;;;;;;;5049196;28;20215;-88
2022/12/11 09:49:34;;;;;;;25.47;16.03;;;;;;;;;;5018188;28;20205;-89
2022/12/11 09:52:07;;;;;;;31.73;24.40;;;;;;;;;;5032916;28;20200;-89
2022/12/11 09:54:36;;;;;;;29.13;19.27;;;;;;;;;;5037380;28;20263;-88
2022/12/11 09:57:11;;;;;;;28.17;19.00;;;;;;;;;;5037404;28;20215;-88
2022/12/11 09:59:46;;;;;;;29.13;21.87;;;;;;;;;;5037496;28;20204;-88
2022/12/11 10:02:23;;;;;;;30.00;21.90;;;;;;;;;;5037585;28;20208;-88
2022/12/11 10:04:54;;;;;;;15.50;10.73;;;;;;;;;;5037147;28;20230;-88
2022/12/11 10:07:27;;;;;;;17.63;11.67;;;;;;;;;;5037704;28;20206;-88
2022/12/11 10:09:59;;;;;;;23.57;15.03;;;;;;;;;;5036989;28;20224;-88
2022/12/11 10:12:34;;;;;;;16.33;10.10;;;;;;;;;;5037763;28;20236;-88
2022/12/11 10:15:16;;;;;;;22.23;16.50;;;;;;;;;;5037340;28;20200;-88
2022/12/11 10:17:45;;;;;;;27.93;20.60;;;;;;;;;;5024609;28;20228;-88
2022/12/11 10:20:25;;;;;;;24.20;18.77;;;;;;;;;;5030401;28;20200;-88
2022/12/11 10:22:55;;;;;;;24.20;17.87;;;;;;;;;;5030654;28;20203;-88
2022/12/11 10:25:27;;;;;;;24.10;16.43;;;;;;;;;;5036887;28;20194;-88
2022/12/11 10:27:56;;;;;;;21.63;15.23;;;;;;;;;;5036536;28;20203;-88
2022/12/11 10:30:27;;;;;;;20.00;14.57;;;;;;;;;;5036901;28;20224;-88
2022/12/11 10:33:04;;;;;;;22.67;14.47;;;;;;;;;;5023424;28;20229;-88
2022/12/11 10:35:35;;;;;;;19.73;14.73;;;;;;;;;;5036872;28;20215;-88
2022/12/11 10:38:12;;;;;;;10.27;7.47;;;;;;;;;;5017262;28;20295;-89
2022/12/11 10:40:43;;;;;;;19.30;13.83;;;;;;;;;;5018551;28;20199;-88
2022/12/11 10:43:12;;;;;;;12.00;7.67;;;;;;;;;;5026818;28;20215;-89
2022/12/11 10:45:50;;;;;;;15.43;10.73;;;;;;;;;;5037017;28;20208;-88
2022/12/11 10:48:19;;;;;;;20.37;16.13;;;;;;;;;;5063123;28;20208;-88
2022/12/11 10:50:56;;;;;;;19.60;13.90;;;;;;;;;;5036152;28;20209;-88
2022/12/11 10:53:26;;;;;;;13.20;11.03;;;;;;;;;;5024239;28;20211;-88
2022/12/11 10:55:56;;;;;;;17.00;11.60;;;;;;;;;;5022895;28;20213;-88
2022/12/11 10:58:26;;;;;;;15.63;11.10;;;;;;;;;;5035328;28;20213;-89
2022/12/11 11:01:04;;;;;;;18.23;15.80;;;;;;;;;;5024722;28;20199;-89
2022/12/11 11:03:35;;;;;;;16.20;11.93;;;;;;;;;;5036034;28;20219;-88
2022/12/11 11:06:08;;;;;;;19.80;14.27;;;;;;;;;;5036236;28;20289;-88
2022/12/11 11:08:39;;;;;;;15.30;12.93;;;;;;;;;;5031017;28;20212;-88
2022/12/11 11:11:07;;;;;;;18.97;12.43;;;;;;;;;;5025259;28;20266;-88
2022/12/11 11:13:36;;;;;;;22.93;14.10;;;;;;;;;;5035872;28;20238;-88
2022/12/11 11:16:08;;;;;;;7.00;5.03;;;;;;;;;;5035978;28;20239;-88
2022/12/11 11:18:37;;;;;;;17.87;14.40;;;;;;;;;;5041158;28;20216;-88
2022/12/11 11:21:05;;;;;;;9.90;6.70;;;;;;;;;;5021976;28;20201;-87
2022/12/11 11:23:34;;;;;;;16.93;14.03;;;;;;;;;;5035903;28;20231;-89
2022/12/11 11:26:09;;;;;;;21.53;15.47;;;;;;;;;;5035048;28;20211;-88
2022/12/11 11:28:39;;;;;;;21.43;15.27;;;;;;;;;;5035600;28;20603;-88
2022/12/11 11:31:12;;;;;;;23.63;18.67;;;;;;;;;;5019380;28;20209;-89
2022/12/11 11:33:47;;;;;;;17.63;12.10;;;;;;;;;;5033757;28;20249;-88
2022/12/11 11:36:20;;;;;;;23.97;17.70;;;;;;;;;;5021683;28;20195;-88
2022/12/11 11:38:51;;;;;;;25.03;17.27;;;;;;;;;;5053360;28;20201;-88
2022/12/11 11:41:21;;;;;;;19.77;15.13;;;;;;;;;;5022949;28;20192;-88
2022/12/11 11:43:51;;;;;;;23.10;16.47;;;;;;;;;;5035102;28;20216;-88
2022/12/11 11:46:24;;;;;;;17.77;14.03;;;;;;;;;;5032245;28;20260;-88
2022/12/11 11:48:59;;;;;;;17.73;11.73;;;;;;;;;;5033217;28;20204;-88
2022/12/11 11:51:30;;;;;;;15.97;9.60;;;;;;;;;;5016551;28;20216;-88
2022/12/11 11:54:00;;;;;;;21.80;17.07;;;;;;;;;;5033468;28;20260;-88
2022/12/11 11:56:33;;;;;;;21.93;15.97;;;;;;;;;;5024193;28;20206;-88
2022/12/11 11:59:07;;;;;;;18.37;15.37;;;;;;;;;;5034576;28;20262;-88
2022/12/11 12:01:37;;;;;;;23.63;19.10;;;;;;;;;;5027121;28;20203;-87
2022/12/11 12:04:05;;;;;;;21.90;15.97;;;;;;;;;;5035550;28;20253;-88
2022/12/11 12:06:50;;;;;;;18.90;13.73;;;;;;;;;;5025025;28;20195;-88
2022/12/11 12:09:25;;;;;;;25.70;21.63;;;;;;;;;;5031998;28;20203;-88
2022/12/11 12:11:58;;;;;;;37.70;27.07;;;;;;;;;;5029361;28;20219;-88
2022/12/11 12:14:29;;;;;;;15.43;10.80;;;;;;;;;;5032651;28;20209;-88
2022/12/11 12:17:23;;;;;;;25.87;19.23;;;;;;;;;;5014447;28;20204;-88
2022/12/11 12:19:55;;;;;;;29.77;21.43;;;;;;;;;;5019205;28;20213;-88
2022/12/11 12:22:48;;;;;;;30.37;24.83;;;;;;;;;;5035534;28;20193;-88
2022/12/11 12:25:19;;;;;;;26.83;20.87;;;;;;;;;;5024641;28;20199;-88
2022/12/11 12:27:54;;;;;;;28.53;19.47;;;;;;;;;;5029856;28;20190;-88
2022/12/11 12:30:23;;;;;;;29.50;22.57;;;;;;;;;;5034202;28;20230;-88
2022/12/11 12:32:59;;;;;;;29.93;22.47;;;;;;;;;;5034559;28;20323;-88
2022/12/11 12:35:35;;;;;;;23.60;15.97;;;;;;;;;;5035205;28;20196;-88
2022/12/11 12:38:08;;;;;;;22.40;15.63;;;;;;;;;;5030125;28;20229;-88
2022/12/11 12:40:40;;;;;;;28.77;22.47;;;;;;;;;;5048470;28;20263;-88
2022/12/11 12:43:18;;;;;;;27.33;19.80;;;;;;;;;;5052638;28;20193;-88
2022/12/11 12:45:51;;;;;;;24.83;18.67;;;;;;;;;;5036787;28;20245;-88
2022/12/11 12:48:21;;;;;;;18.23;12.10;;;;;;;;;;5060862;28;20209;-88
2022/12/11 12:50:51;;;;;;;24.80;16.07;;;;;;;;;;5052481;28;20196;-88
2022/12/11 12:53:21;;;;;;;26.43;19.60;;;;;;;;;;5034757;28;20216;-88
2022/12/11 12:55:49;;;;;;;27.70;22.03;;;;;;;;;;5035028;28;20205;-88
2022/12/11 12:58:28;;;;;;;31.57;23.33;;;;;;;;;;5035012;28;20200;-88
2022/12/11 13:01:07;;;;;;;28.27;18.27;;;;;;;;;;5024173;28;20207;-88
2022/12/11 13:03:38;;;;;;;34.70;22.57;;;;;;;;;;5034543;28;20273;-88
2022/12/11 13:06:08;;;;;;;30.20;20.40;;;;;;;;;;5034558;28;20239;-88
2022/12/11 13:08:40;;;;;;;32.27;22.27;;;;;;;;;;5033907;28;20200;-87
2022/12/11 13:11:10;;;;;;;26.40;17.60;;;;;;;;;;5034254;28;20204;-88
2022/12/11 13:13:39;;;;;;;31.13;23.43;;;;;;;;;;5051927;28;20206;-88
2022/12/11 13:16:09;;;;;;;27.50;21.10;;;;;;;;;;5039966;28;20291;-87
2022/12/11 13:18:39;;;;;;;28.63;19.53;;;;;;;;;;5019855;28;20196;-88
2022/12/11 13:21:23;;;;;;;27.73;21.87;;;;;;;;;;5032941;28;20199;-88
2022/12/11 13:23:51;;;;;;;22.23;17.77;;;;;;;;;;5055747;28;20203;-88
2022/12/11 13:26:28;;;;;;;27.77;20.87;;;;;;;;;;5055833;28;20218;-88
2022/12/11 13:28:57;;;;;;;31.60;20.10;;;;;;;;;;5025987;28;20195;-88
2022/12/11 13:31:35;;;;;;;31.73;21.30;;;;;;;;;;5037287;28;20544;-88
2022/12/11 13:34:12;;;;;;;22.50;15.83;;;;;;;;;;5036266;28;20231;-88
2022/12/11 13:36:41;;;;;;;21.37;15.83;;;;;;;;;;5044047;28;20198;-88
2022/12/11 13:39:17;;;;;;;6.73;4.83;;;;;;;;;;5036938;28;20259;-88
2022/12/11 13:41:47;;;;;;;25.93;16.73;;;;;;;;;;5037904;28;20253;-88
2022/12/11 13:44:18;;;;;;;20.80;13.83;;;;;;;;;;5037347;28;20222;-88
2022/12/11 13:46:47;;;;;;;21.37;12.83;;;;;;;;;;5046677;28;20201;-88
2022/12/11 13:49:22;;;;;;;7.40;5.43;;;;;;;;;;5025556;28;20225;-88
2022/12/11 13:51:54;;;;;;;5.97;4.73;;;;;;;;;;5055012;28;20217;-87
2022/12/11 13:54:23;;;;;;;10.97;7.10;;;;;;;;;;5055135;28;20220;-88
2022/12/11 13:56:55;;;;;;;7.17;6.07;;;;;;;;;;5054687;28;20206;-88
2022/12/11 13:59:28;;;;;;;20.43;14.73;;;;;;;;;;5037643;28;20201;-87
2022/12/11 14:01:59;;;;;;;21.93;17.57;;;;;;;;;;5033907;28;20194;-88
2022/12/11 14:04:29;;;;;;;27.53;21.57;;;;;;;;;;5045780;28;20216;-88
2022/12/11 14:06:58;;;;;;;24.73;16.63;;;;;;;;;;5055250;28;20263;-88
2022/12/11 14:09:28;;;;;;;25.77;13.87;;;;;;;;;;5054845;28;20216;-88
2022/12/11 14:11:58;;;;;;;29.00;20.97;;;;;;;;;;5037062;28;20283;-88
2022/12/11 14:14:30;;;;;;;25.77;18.37;;;;;;;;;;5033441;28;20363;-88
2022/12/11 14:16:58;;;;;;;24.87;16.33;;;;;;;;;;5054789;28;20197;-88
2022/12/11 14:19:28;;;;;;;20.63;13.70;;;;;;;;;;5024275;28;20201;-89
2022/12/11 14:21:58;;;;;;;23.90;19.50;;;;;;;;;;5037458;28;20204;-88
2022/12/11 14:24:27;;;;;;;27.67;17.83;;;;;;;;;;5036808;28;20266;-88
2022/12/11 14:26:56;;;;;;;26.77;18.00;;;;;;;;;;5037046;28;20230;-88
2022/12/11 14:29:29;;;;;;;21.57;16.50;;;;;;;;;;5036189;28;20231;-88
2022/12/11 14:32:00;;;;;;;26.90;21.37;;;;;;;;;;5036814;28;20291;-89
2022/12/11 14:34:31;;;;;;;29.97;20.37;;;;;;;;;;5053855;28;20282;-88
2022/12/11 14:37:01;;;;;;;33.03;24.03;;;;;;;;;;5036951;28;20196;-88
2022/12/11 14:39:33;;;;;;;36.53;25.23;;;;;;;;;;5053802;28;20214;-88
2022/12/11 14:42:03;;;;;;;36.13;25.23;;;;;;;;;;5036225;28;20201;-89
2022/12/11 14:44:34;;;;;;;33.53;24.47;;;;;;;;;;5036816;28;20197;-88
2022/12/11 14:47:04;;;;;;;19.47;12.80;;;;;;;;;;5036193;28;20214;-88
2022/12/11 14:49:39;;;;;;;30.80;18.90;;;;;;;;;;5054437;28;20223;-88
2022/12/11 14:52:14;;;;;;;34.87;25.87;;;;;;;;;;5033958;28;20238;-88
2022/12/11 14:54:44;;;;;;;38.97;26.93;;;;;;;;;;5034965;28;20263;-88
2022/12/11 14:57:19;;;;;;;37.50;27.83;;;;;;;;;;5052391;28;20289;-88
2022/12/11 14:59:48;;;;;;;32.27;24.30;;;;;;;;;;5024242;28;20204;-88
2022/12/11 15:02:28;;;;;;;35.73;26.47;;;;;;;;;;5049505;28;20286;-88
2022/12/11 15:05:06;;;;;;;39.30;22.47;;;;;;;;;;5048681;28;20222;-89
2022/12/11 15:07:37;;;;;;;39.23;23.80;;;;;;;;;;5036316;28;20231;-88
2022/12/11 15:10:06;;;;;;;37.97;26.27;;;;;;;;;;5049852;28;20253;-89
2022/12/11 15:12:34;;;;;;;32.03;19.60;;;;;;;;;;5033849;28;20231;-88
2022/12/11 15:15:05;;;;;;;34.33;25.03;;;;;;;;;;5029753;28;20204;-88
2022/12/11 15:17:35;;;;;;;35.63;24.10;;;;;;;;;;5028098;28;20204;-88
2022/12/11 15:20:07;;;;;;;23.27;17.43;;;;;;;;;;5029797;28;20298;-88
2022/12/11 15:22:36;;;;;;;32.17;16.97;;;;;;;;;;5029431;28;20231;-88
2022/12/11 15:25:05;;;;;;;44.20;28.80;;;;;;;;;;5039874;28;20273;-88
2022/12/11 15:27:35;;;;;;;30.43;17.70;;;;;;;;;;5035273;28;20204;-88
2022/12/11 15:30:16;;;;;;;41.60;28.27;;;;;;;;;;5040418;28;20299;-89